Aérodrome :
LOGIN :

S'inscrire | Disclaimer

   EN    FR    IT 

 










Légende :    VFR   VFR Marginal   IFR   IFR Intensif   IFR Très Intensif
Visi : 
Plafond : 
>= 8 km
>= 3000ft
5 à 8 km
1000 à 3000 ft
1500m à 5 km
500 à 1000 ft
800 à 1500m
200 à 500 ft
< 800m
< 200 ft
Symboles :   Orages  Brouillard  Fortes neiges  Fortes précipitations  Vent > 20 kt
SIGMETs :   Divers  Orages  Givrage  Turbulence  Onde Orograph.  Cendres Volcan.






- Altitude de l'aérodrome : 1504 ft
- Code IATA : PNA


LEPP - Noain Pamplona

DERNIER METAR :
  • 191500Z 15012KT CAVOK 22/05 Q1014

METARs EXPIRÉS :
  • 191430Z 15016G28KT CAVOK 22/04 Q1015
  • 191400Z 14015KT 110V170 CAVOK 22/05 Q1015
  • 191330Z 14015KT 110V190 CAVOK 22/06 Q1015
  • 191300Z 15017KT 110V180 CAVOK 21/05 Q1016

TAF TAF LEPP
Valide du 19 à 15h jusqu'au 20 à 15h UTC


191400Z 1915/2015 16015KT CAVOK TX16/2014Z TN13/2007Z
PROB40
TEMPO 1915/2015 16018G30KT
PROB40
TEMPO 2004/2015 RA



MET'MAP, la Météo Aéronautique d'un coup d'oeil ! - Copyright ORBIFLY Décembre 2007 - Disclaimer

ORBIFLY MET'MAP TEAM :

Programmation & Développement : Alexandra Zaïnal
Sur une idée originale de : Baudouin d'Aumeries
Assistance à la programmation : Marc-Olivier Méhu
Soutien technique & logistique : Manuel Goepfert

Contact : metmap@orbifly.com




SOURCES & CREDITS :

   NOAA